sensor_id;sensor_type;location;lat;lon;timestamp;pressure;altitude;pressure_sealevel;temperature;humidity
46015;BME280;36844;51.898;-0.874;2023-02-03T00:01:13;101630.91;;;18.61;
46015;BME280;36844;51.898;-0.874;2023-02-03T00:03:38;101623.19;;;18.59;
46015;BME280;36844;51.898;-0.874;2023-02-03T00:06:03;101628.97;;;18.58;
46015;BME280;36844;51.898;-0.874;2023-02-03T00:08:29;101612.38;;;18.56;
46015;BME280;36844;51.898;-0.874;2023-02-03T00:10:54;101615.44;;;18.54;
46015;BME280;36844;51.898;-0.874;2023-02-03T00:13:19;101608.06;;;18.51;
46015;BME280;36844;51.898;-0.874;2023-02-03T00:15:45;101616.16;;;18.51;
46015;BME280;36844;51.898;-0.874;2023-02-03T00:18:10;101617.69;;;18.49;
46015;BME280;36844;51.898;-0.874;2023-02-03T00:20:35;101609.94;;;18.47;
46015;BME280;36844;51.898;-0.874;2023-02-03T00:23:02;101603.41;;;18.45;
46015;BME280;36844;51.898;-0.874;2023-02-03T00:25:27;101608.78;;;18.45;
46015;BME280;36844;51.898;-0.874;2023-02-03T00:27:52;101606.84;;;18.42;
46015;BME280;36844;51.898;-0.874;2023-02-03T00:30:17;101609.09;;;18.40;
46015;BME280;36844;51.898;-0.874;2023-02-03T00:32:42;101599.47;;;18.39;
46015;BME280;36844;51.898;-0.874;2023-02-03T00:35:08;101599.06;;;18.37;
46015;BME280;36844;51.898;-0.874;2023-02-03T00:37:33;101607.53;;;18.35;
46015;BME280;36844;51.898;-0.874;2023-02-03T00:40:00;101604.06;;;18.35;
46015;BME280;36844;51.898;-0.874;2023-02-03T00:42:25;101603.63;;;18.33;
46015;BME280;36844;51.898;-0.874;2023-02-03T00:44:50;101606.72;;;18.31;
46015;BME280;36844;51.898;-0.874;2023-02-03T00:47:15;101599.00;;;18.30;
46015;BME280;36844;51.898;-0.874;2023-02-03T00:49:40;101587.81;;;18.28;
46015;BME280;36844;51.898;-0.874;2023-02-03T00:52:06;101598.16;;;18.26;
46015;BME280;36844;51.898;-0.874;2023-02-03T00:54:32;101607.38;;;18.25;
46015;BME280;36844;51.898;-0.874;2023-02-03T00:56:57;101600.47;;;18.24;
46015;BME280;36844;51.898;-0.874;2023-02-03T00:59:23;101605.44;;;18.22;
46015;BME280;36844;51.898;-0.874;2023-02-03T01:01:48;101599.66;;;18.20;
46015;BME280;36844;51.898;-0.874;2023-02-03T01:04:15;101592.69;;;18.19;
46015;BME280;36844;51.898;-0.874;2023-02-03T01:06:40;101594.97;;;18.17;
46015;BME280;36844;51.898;-0.874;2023-02-03T01:09:05;101604.22;;;18.16;
46015;BME280;36844;51.898;-0.874;2023-02-03T01:11:30;101598.41;;;18.14;
46015;BME280;36844;51.898;-0.874;2023-02-03T01:13:56;101591.50;;;18.13;
46015;BME280;36844;51.898;-0.874;2023-02-03T01:16:24;101585.66;;;18.11;
46015;BME280;36844;51.898;-0.874;2023-02-03T01:18:50;101582.19;;;18.10;
46015;BME280;36844;51.898;-0.874;2023-02-03T01:21:17;101580.22;;;18.07;
46015;BME280;36844;51.898;-0.874;2023-02-03T01:23:43;101568.66;;;18.07;
46015;BME280;36844;51.898;-0.874;2023-02-03T01:26:12;101568.28;;;18.05;
46015;BME280;36844;51.898;-0.874;2023-02-03T01:28:38;101570.97;;;18.05;
46015;BME280;36844;51.898;-0.874;2023-02-03T01:31:11;101572.47;;;18.02;
46015;BME280;36844;51.898;-0.874;2023-02-03T01:33:36;101580.94;;;18.01;
46015;BME280;36844;51.898;-0.874;2023-02-03T01:36:04;101574.75;;;18.00;
46015;BME280;36844;51.898;-0.874;2023-02-03T01:38:30;101583.22;;;17.99;
46015;BME280;36844;51.898;-0.874;2023-02-03T01:40:55;101568.16;;;17.98;
46015;BME280;36844;51.898;-0.874;2023-02-03T01:43:55;101585.50;;;17.97;
46015;BME280;36844;51.898;-0.874;2023-02-03T01:48:40;101570.81;;;17.94;
46015;BME280;36844;51.898;-0.874;2023-02-03T01:51:06;101565.81;;;17.93;
46015;BME280;36844;51.898;-0.874;2023-02-03T01:53:31;101572.34;;;17.92;
46015;BME280;36844;51.898;-0.874;2023-02-03T01:55:57;101568.88;;;17.91;
46015;BME280;36844;51.898;-0.874;2023-02-03T01:58:24;101573.06;;;17.89;
46015;BME280;36844;51.898;-0.874;2023-02-03T02:00:52;101578.47;;;17.89;
46015;BME280;36844;51.898;-0.874;2023-02-03T02:03:19;101571.53;;;17.88;
46015;BME280;36844;51.898;-0.874;2023-02-03T02:05:47;101573.81;;;17.86;
46015;BME280;36844;51.898;-0.874;2023-02-03T02:08:13;101577.63;;;17.85;
46015;BME280;36844;51.898;-0.874;2023-02-03T02:10:39;101579.91;;;17.83;
46015;BME280;36844;51.898;-0.874;2023-02-03T02:13:05;101585.31;;;17.83;
46015;BME280;36844;51.898;-0.874;2023-02-03T02:15:43;101598.03;;;17.82;
46015;BME280;36844;51.898;-0.874;2023-02-03T02:18:13;101593.00;;;17.81;
46015;BME280;36844;51.898;-0.874;2023-02-03T02:20:47;101592.22;;;17.80;
46015;BME280;36844;51.898;-0.874;2023-02-03T02:26:04;101589.47;;;17.77;
46015;BME280;36844;51.898;-0.874;2023-02-03T02:36:29;101593.63;;;17.70;
46015;BME280;36844;51.898;-0.874;2023-02-03T02:46:22;101602.41;;;17.67;
46015;BME280;36844;51.898;-0.874;2023-02-03T02:49:02;101608.19;;;17.66;
46015;BME280;36844;51.898;-0.874;2023-02-03T02:51:28;101603.94;;;17.65;
46015;BME280;36844;51.898;-0.874;2023-02-03T02:53:55;101589.69;;;17.64;
46015;BME280;36844;51.898;-0.874;2023-02-03T02:56:21;101596.22;;;17.63;
46015;BME280;36844;51.898;-0.874;2023-02-03T02:58:48;101602.75;;;17.62;
46015;BME280;36844;51.898;-0.874;2023-02-03T03:01:15;101604.69;;;17.62;
46015;BME280;36844;51.898;-0.874;2023-02-03T03:03:40;101601.22;;;17.61;
46015;BME280;36844;51.898;-0.874;2023-02-03T03:06:10;101598.84;;;17.60;
46015;BME280;36844;51.898;-0.874;2023-02-03T03:08:47;101598.06;;;17.59;
46015;BME280;36844;51.898;-0.874;2023-02-03T03:11:14;101600.38;;;17.57;
46015;BME280;36844;51.898;-0.874;2023-02-03T03:13:40;101599.25;;;17.58;
46015;BME280;36844;51.898;-0.874;2023-02-03T03:16:07;101607.69;;;17.57;
46015;BME280;36844;51.898;-0.874;2023-02-03T03:18:34;101600.72;;;17.56;
46015;BME280;36844;51.898;-0.874;2023-02-03T03:21:01;101613.41;;;17.55;
46015;BME280;36844;51.898;-0.874;2023-02-03T03:23:31;101611.88;;;17.54;
46015;BME280;36844;51.898;-0.874;2023-02-03T03:26:08;101615.72;;;17.53;
46015;BME280;36844;51.898;-0.874;2023-02-03T03:31:32;101623.34;;;17.51;
46015;BME280;36844;51.898;-0.874;2023-02-03T03:33:57;101621.03;;;17.50;
46015;BME280;36844;51.898;-0.874;2023-02-03T03:36:27;101614.09;;;17.49;
46015;BME280;36844;51.898;-0.874;2023-02-03T03:43:57;101613.69;;;17.47;
46015;BME280;36844;51.898;-0.874;2023-02-03T03:46:28;101623.69;;;17.46;
46015;BME280;36844;51.898;-0.874;2023-02-03T03:48:55;101630.19;;;17.45;
46015;BME280;36844;51.898;-0.874;2023-02-03T03:51:42;101616.34;;;17.43;
46015;BME280;36844;51.898;-0.874;2023-02-03T03:54:10;101617.47;;;17.42;
46015;BME280;36844;51.898;-0.874;2023-02-03T03:56:45;101614.00;;;17.42;
46015;BME280;36844;51.898;-0.874;2023-02-03T03:59:10;101617.03;;;17.40;
46015;BME280;36844;51.898;-0.874;2023-02-03T04:01:38;101611.63;;;17.40;
46015;BME280;36844;51.898;-0.874;2023-02-03T04:04:05;101620.91;;;17.39;
46015;BME280;36844;51.898;-0.874;2023-02-03T04:06:30;101613.94;;;17.38;
46015;BME280;36844;51.898;-0.874;2023-02-03T04:08:56;101623.94;;;17.38;
46015;BME280;36844;51.898;-0.874;2023-02-03T04:11:21;101624.72;;;17.38;
46015;BME280;36844;51.898;-0.874;2023-02-03T04:14:05;101620.84;;;17.36;
46015;BME280;36844;51.898;-0.874;2023-02-03T04:16:30;101626.22;;;17.36;
46015;BME280;36844;51.898;-0.874;2023-02-03T04:18:55;101623.88;;;17.34;
46015;BME280;36844;51.898;-0.874;2023-02-03T04:21:21;101623.09;;;17.34;
46015;BME280;36844;51.898;-0.874;2023-02-03T04:23:46;101621.19;;;17.34;
46015;BME280;36844;51.898;-0.874;2023-02-03T04:26:11;101625.00;;;17.33;
46015;BME280;36844;51.898;-0.874;2023-02-03T04:28:36;101628.84;;;17.32;
46015;BME280;36844;51.898;-0.874;2023-02-03T04:31:02;101626.16;;;17.32;
46015;BME280;36844;51.898;-0.874;2023-02-03T04:33:27;101621.91;;;17.31;
46015;BME280;36844;51.898;-0.874;2023-02-03T04:35:52;101629.22;;;17.31;
46015;BME280;36844;51.898;-0.874;2023-02-03T04:38:17;101636.50;;;17.30;
46015;BME280;36844;51.898;-0.874;2023-02-03T04:40:42;101648.41;;;17.29;
46015;BME280;36844;51.898;-0.874;2023-02-03T04:43:10;101652.28;;;17.28;
46015;BME280;36844;51.898;-0.874;2023-02-03T04:45:35;101656.88;;;17.28;
46015;BME280;36844;51.898;-0.874;2023-02-03T04:48:00;101666.84;;;17.27;
46015;BME280;36844;51.898;-0.874;2023-02-03T04:50:26;101671.44;;;17.27;
46015;BME280;36844;51.898;-0.874;2023-02-03T04:52:51;101671.78;;;17.25;
46015;BME280;36844;51.898;-0.874;2023-02-03T04:55:16;101672.56;;;17.26;
46015;BME280;36844;51.898;-0.874;2023-02-03T04:57:41;101673.72;;;17.25;
46015;BME280;36844;51.898;-0.874;2023-02-03T05:00:07;101674.88;;;17.24;
46015;BME280;36844;51.898;-0.874;2023-02-03T05:02:33;101676.00;;;17.23;
46015;BME280;36844;51.898;-0.874;2023-02-03T05:04:58;101679.81;;;17.22;
46015;BME280;36844;51.898;-0.874;2023-02-03T05:07:23;101679.06;;;17.21;
46015;BME280;36844;51.898;-0.874;2023-02-03T05:09:51;101672.88;;;17.21;
46015;BME280;36844;51.898;-0.874;2023-02-03T05:12:16;101682.91;;;17.20;
46015;BME280;36844;51.898;-0.874;2023-02-03T05:14:42;101682.44;;;17.18;
46015;BME280;36844;51.898;-0.874;2023-02-03T05:17:07;101687.50;;;17.20;
46015;BME280;36844;51.898;-0.874;2023-02-03T05:19:32;101685.91;;;17.19;
46015;BME280;36844;51.898;-0.874;2023-02-03T05:21:57;101682.44;;;17.18;
46015;BME280;36844;51.898;-0.874;2023-02-03T05:24:22;101681.66;;;17.18;
46015;BME280;36844;51.898;-0.874;2023-02-03T05:26:48;101674.75;;;17.17;
46015;BME280;36844;51.898;-0.874;2023-02-03T05:29:13;101673.19;;;17.16;
46015;BME280;36844;51.898;-0.874;2023-02-03T05:31:38;101681.25;;;17.16;
46015;BME280;36844;51.898;-0.874;2023-02-03T05:34:04;101683.97;;;17.16;
46015;BME280;36844;51.898;-0.874;2023-02-03T05:36:29;101677.00;;;17.15;
46015;BME280;36844;51.898;-0.874;2023-02-03T05:38:54;101677.78;;;17.15;
46015;BME280;36844;51.898;-0.874;2023-02-03T05:41:19;101668.13;;;17.14;
46015;BME280;36844;51.898;-0.874;2023-02-03T05:44:03;101679.31;;;17.13;
46015;BME280;36844;51.898;-0.874;2023-02-03T05:46:29;101672.34;;;17.12;
46015;BME280;36844;51.898;-0.874;2023-02-03T05:48:54;101673.13;;;17.12;
46015;BME280;36844;51.898;-0.874;2023-02-03T05:51:19;101661.91;;;17.10;
46015;BME280;36844;51.898;-0.874;2023-02-03T05:53:44;101664.59;;;17.10;
46015;BME280;36844;51.898;-0.874;2023-02-03T05:56:10;101668.44;;;17.09;
46015;BME280;36844;51.898;-0.874;2023-02-03T05:58:35;101671.94;;;17.10;
46015;BME280;36844;51.898;-0.874;2023-02-03T06:01:00;101672.28;;;17.08;
46015;BME280;36844;51.898;-0.874;2023-02-03T06:03:25;101672.28;;;17.08;
46015;BME280;36844;51.898;-0.874;2023-02-03T06:05:51;101676.88;;;17.08;
46015;BME280;36844;51.898;-0.874;2023-02-03T06:08:19;101689.56;;;17.07;
46015;BME280;36844;51.898;-0.874;2023-02-03T06:10:44;101686.88;;;17.07;
46015;BME280;36844;51.898;-0.874;2023-02-03T06:13:10;101687.22;;;17.06;
46015;BME280;36844;51.898;-0.874;2023-02-03T06:15:36;101692.63;;;17.06;
46015;BME280;36844;51.898;-0.874;2023-02-03T06:18:01;101691.06;;;17.05;
46015;BME280;36844;51.898;-0.874;2023-02-03T06:20:26;101692.97;;;17.04;
46015;BME280;36844;51.898;-0.874;2023-02-03T06:22:52;101700.25;;;17.04;
46015;BME280;36844;51.898;-0.874;2023-02-03T06:25:17;101704.06;;;17.03;
46015;BME280;36844;51.898;-0.874;2023-02-03T06:27:42;101706.78;;;17.03;
46015;BME280;36844;51.898;-0.874;2023-02-03T06:30:08;101716.78;;;17.02;
46015;BME280;36844;51.898;-0.874;2023-02-03T06:32:33;101716.78;;;17.02;
46015;BME280;36844;51.898;-0.874;2023-02-03T06:34:58;101723.31;;;17.01;
46015;BME280;36844;51.898;-0.874;2023-02-03T06:37:24;101716.34;;;17.00;
46015;BME280;36844;51.898;-0.874;2023-02-03T06:39:49;101715.56;;;17.00;
46015;BME280;36844;51.898;-0.874;2023-02-03T06:42:14;101723.66;;;17.00;
46015;BME280;36844;51.898;-0.874;2023-02-03T06:44:39;101714.78;;;16.99;
46015;BME280;36844;51.898;-0.874;2023-02-03T06:47:05;101713.25;;;16.98;
46015;BME280;36844;51.898;-0.874;2023-02-03T06:49:30;101719.38;;;16.99;
46015;BME280;36844;51.898;-0.874;2023-02-03T06:51:55;101724.44;;;17.00;
46015;BME280;36844;51.898;-0.874;2023-02-03T06:54:20;101732.50;;;17.00;
46015;BME280;36844;51.898;-0.874;2023-02-03T06:56:46;101732.50;;;17.00;
46015;BME280;36844;51.898;-0.874;2023-02-03T06:59:11;101732.94;;;17.02;
46015;BME280;36844;51.898;-0.874;2023-02-03T07:01:36;101743.34;;;17.04;
46015;BME280;36844;51.898;-0.874;2023-02-03T07:04:02;101734.94;;;17.05;
46015;BME280;36844;51.898;-0.874;2023-02-03T07:06:27;101738.00;;;17.07;
46015;BME280;36844;51.898;-0.874;2023-02-03T07:08:55;101742.69;;;17.10;
46015;BME280;36844;51.898;-0.874;2023-02-03T07:11:21;101737.75;;;17.12;
46015;BME280;36844;51.898;-0.874;2023-02-03T07:13:46;101739.72;;;17.15;
46015;BME280;36844;51.898;-0.874;2023-02-03T07:16:11;101737.06;;;17.19;
46015;BME280;36844;51.898;-0.874;2023-02-03T07:18:37;101744.44;;;17.22;
46015;BME280;36844;51.898;-0.874;2023-02-03T07:21:03;101749.88;;;17.25;
46015;BME280;36844;51.898;-0.874;2023-02-03T07:23:28;101758.81;;;17.29;
46015;BME280;36844;51.898;-0.874;2023-02-03T07:25:57;101745.41;;;17.33;
46015;BME280;36844;51.898;-0.874;2023-02-03T07:28:22;101747.81;;;17.38;
46015;BME280;36844;51.898;-0.874;2023-02-03T07:30:47;101749.44;;;17.42;
46015;BME280;36844;51.898;-0.874;2023-02-03T07:33:13;101747.59;;;17.46;
46015;BME280;36844;51.898;-0.874;2023-02-03T07:35:38;101739.56;;;17.50;
46015;BME280;36844;51.898;-0.874;2023-02-03T07:38:04;101741.97;;;17.55;
46015;BME280;36844;51.898;-0.874;2023-02-03T07:40:29;101736.66;;;17.58;
46015;BME280;36844;51.898;-0.874;2023-02-03T07:42:54;101736.31;;;17.63;
46015;BME280;36844;51.898;-0.874;2023-02-03T07:45:19;101736.38;;;17.67;
46015;BME280;36844;51.898;-0.874;2023-02-03T07:47:46;101728.38;;;17.70;
46015;BME280;36844;51.898;-0.874;2023-02-03T07:50:11;101731.88;;;17.74;
46015;BME280;36844;51.898;-0.874;2023-02-03T07:52:37;101732.69;;;17.78;
46015;BME280;36844;51.898;-0.874;2023-02-03T07:55:02;101737.81;;;17.84;
46015;BME280;36844;51.898;-0.874;2023-02-03T07:57:28;101730.13;;;17.86;
46015;BME280;36844;51.898;-0.874;2023-02-03T07:59:53;101722.47;;;17.88;
46015;BME280;36844;51.898;-0.874;2023-02-03T08:02:18;101730.97;;;17.90;
46015;BME280;36844;51.898;-0.874;2023-02-03T08:04:43;101729.47;;;17.92;
46015;BME280;36844;51.898;-0.874;2023-02-03T08:07:08;101721.00;;;17.94;
46015;BME280;36844;51.898;-0.874;2023-02-03T08:09:34;101730.66;;;17.95;
46015;BME280;36844;51.898;-0.874;2023-02-03T08:11:59;101732.19;;;17.96;
46015;BME280;36844;51.898;-0.874;2023-02-03T08:14:24;101739.16;;;17.97;
46015;BME280;36844;51.898;-0.874;2023-02-03T08:16:49;101746.09;;;17.98;
46015;BME280;36844;51.898;-0.874;2023-02-03T08:19:14;101755.75;;;17.99;
46015;BME280;36844;51.898;-0.874;2023-02-03T08:21:40;101763.84;;;17.99;
46015;BME280;36844;51.898;-0.874;2023-02-03T08:24:05;101776.97;;;18.00;
46015;BME280;36844;51.898;-0.874;2023-02-03T08:26:30;101771.94;;;17.99;
46015;BME280;36844;51.898;-0.874;2023-02-03T08:28:55;101779.66;;;18.00;
46015;BME280;36844;51.898;-0.874;2023-02-03T08:31:21;101783.13;;;18.01;
46015;BME280;36844;51.898;-0.874;2023-02-03T08:33:46;101779.66;;;18.00;
46015;BME280;36844;51.898;-0.874;2023-02-03T08:36:11;101789.66;;;18.00;
46015;BME280;36844;51.898;-0.874;2023-02-03T08:38:37;101788.09;;;17.99;
46015;BME280;36844;51.898;-0.874;2023-02-03T08:41:13;101785.41;;;17.99;
46015;BME280;36844;51.898;-0.874;2023-02-03T08:43:39;101792.72;;;17.98;
46015;BME280;36844;51.898;-0.874;2023-02-03T08:46:05;101796.56;;;17.97;
46015;BME280;36844;51.898;-0.874;2023-02-03T08:48:31;101791.19;;;17.97;
46015;BME280;36844;51.898;-0.874;2023-02-03T08:50:56;101796.91;;;17.96;
46015;BME280;36844;51.898;-0.874;2023-02-03T08:53:21;101792.66;;;17.95;
46015;BME280;36844;51.898;-0.874;2023-02-03T08:55:47;101799.97;;;17.94;
46015;BME280;36844;51.898;-0.874;2023-02-03T08:58:14;101801.13;;;17.93;
46015;BME280;36844;51.898;-0.874;2023-02-03T09:00:39;101811.13;;;17.93;
46015;BME280;36844;51.898;-0.874;2023-02-03T09:03:04;101802.59;;;17.91;
46015;BME280;36844;51.898;-0.874;2023-02-03T09:05:31;101802.59;;;17.91;
46015;BME280;36844;51.898;-0.874;2023-02-03T09:07:56;101811.84;;;17.90;
46015;BME280;36844;51.898;-0.874;2023-02-03T09:10:21;101814.88;;;17.88;
46015;BME280;36844;51.898;-0.874;2023-02-03T09:12:47;101803.34;;;17.88;
46015;BME280;36844;51.898;-0.874;2023-02-03T09:15:12;101806.38;;;17.86;
46015;BME280;36844;51.898;-0.874;2023-02-03T09:17:39;101808.31;;;17.86;
46015;BME280;36844;51.898;-0.874;2023-02-03T09:20:04;101813.28;;;17.84;
46015;BME280;36844;51.898;-0.874;2023-02-03T09:22:30;101807.88;;;17.84;
46015;BME280;36844;51.898;-0.874;2023-02-03T09:24:55;101812.84;;;17.82;
46015;BME280;36844;51.898;-0.874;2023-02-03T09:27:20;101824.00;;;17.80;
46015;BME280;36844;51.898;-0.874;2023-02-03T09:29:45;101832.09;;;17.80;
46015;BME280;36844;51.898;-0.874;2023-02-03T09:32:11;101834.72;;;17.77;
46015;BME280;36844;51.898;-0.874;2023-02-03T09:34:36;101856.28;;;17.77;
46015;BME280;36844;51.898;-0.874;2023-02-03T09:37:02;101863.91;;;17.74;
46015;BME280;36844;51.898;-0.874;2023-02-03T09:39:28;101885.88;;;17.73;
46015;BME280;36844;51.898;-0.874;2023-02-03T09:42:05;101891.25;;;17.73;
46015;BME280;36844;51.898;-0.874;2023-02-03T09:46:59;101898.50;;;17.69;
46015;BME280;36844;51.898;-0.874;2023-02-03T09:51:58;101906.91;;;17.67;
46015;BME280;36844;51.898;-0.874;2023-02-03T09:54:29;101910.75;;;17.66;
46015;BME280;36844;51.898;-0.874;2023-02-03T09:57:03;101915.38;;;17.66;
46015;BME280;36844;51.898;-0.874;2023-02-03T09:59:29;101914.59;;;17.65;
46015;BME280;36844;51.898;-0.874;2023-02-03T10:01:59;101911.47;;;17.63;
46015;BME280;36844;51.898;-0.874;2023-02-03T10:07:14;101922.63;;;17.62;
46015;BME280;36844;51.898;-0.874;2023-02-03T10:09:59;101926.00;;;17.59;
46015;BME280;36844;51.898;-0.874;2023-02-03T10:22:23;101957.06;;;17.53;
46015;BME280;36844;51.898;-0.874;2023-02-03T10:24:56;101963.56;;;17.52;
46015;BME280;36844;51.898;-0.874;2023-02-03T10:27:24;101965.47;;;17.51;
46015;BME280;36844;51.898;-0.874;2023-02-03T10:32:33;101978.53;;;17.49;
46015;BME280;36844;51.898;-0.874;2023-02-03T10:35:00;101979.66;;;17.48;
46015;BME280;36844;51.898;-0.874;2023-02-03T10:37:29;101975.44;;;17.47;
46015;BME280;36844;51.898;-0.874;2023-02-03T10:39:56;101979.25;;;17.46;
46015;BME280;36844;51.898;-0.874;2023-02-03T10:42:22;101981.94;;;17.46;
46015;BME280;36844;51.898;-0.874;2023-02-03T10:47:14;101977.28;;;17.43;
46015;BME280;36844;51.898;-0.874;2023-02-03T10:49:41;101981.09;;;17.42;
46015;BME280;36844;51.898;-0.874;2023-02-03T10:52:07;101983.31;;;17.40;
46015;BME280;36844;51.898;-0.874;2023-02-03T10:54:47;101981.81;;;17.39;
46015;BME280;36844;51.898;-0.874;2023-02-03T10:57:13;101991.00;;;17.38;
46015;BME280;36844;51.898;-0.874;2023-02-03T10:59:45;101988.66;;;17.37;
46015;BME280;36844;51.898;-0.874;2023-02-03T11:04:45;101992.84;;;17.34;
46015;BME280;36844;51.898;-0.874;2023-02-03T11:07:22;101996.66;;;17.33;
46015;BME280;36844;51.898;-0.874;2023-02-03T11:09:47;101995.09;;;17.32;
46015;BME280;36844;51.898;-0.874;2023-02-03T11:12:14;101997.03;;;17.32;
46015;BME280;36844;51.898;-0.874;2023-02-03T11:14:43;101986.59;;;17.30;
46015;BME280;36844;51.898;-0.874;2023-02-03T11:17:19;101985.81;;;17.30;
46015;BME280;36844;51.898;-0.874;2023-02-03T11:19:47;101984.22;;;17.29;
46015;BME280;36844;51.898;-0.874;2023-02-03T11:22:24;101976.16;;;17.29;
46015;BME280;36844;51.898;-0.874;2023-02-03T11:24:50;101984.22;;;17.29;
46015;BME280;36844;51.898;-0.874;2023-02-03T11:27:15;101989.63;;;17.29;
46015;BME280;36844;51.898;-0.874;2023-02-03T11:29:43;101985.00;;;17.29;
46015;BME280;36844;51.898;-0.874;2023-02-03T11:32:20;101981.53;;;17.29;
46015;BME280;36844;51.898;-0.874;2023-02-03T11:34:57;101992.31;;;17.29;
46015;BME280;36844;51.898;-0.874;2023-02-03T11:40:39;102000.38;;;17.29;
46015;BME280;36844;51.898;-0.874;2023-02-03T11:42:42;101994.66;;;17.30;
46015;BME280;36844;51.898;-0.874;2023-02-03T11:45:14;101997.38;;;17.30;
46015;BME280;36844;51.898;-0.874;2023-02-03T11:47:53;101995.47;;;17.31;
46015;BME280;36844;51.898;-0.874;2023-02-03T12:31:30;102017.00;;;17.65;
46015;BME280;36844;51.898;-0.874;2023-02-03T12:34:03;102027.84;;;17.69;
46015;BME280;36844;51.898;-0.874;2023-02-03T12:37:33;102040.25;;;17.73;
46015;BME280;36844;51.898;-0.874;2023-02-03T12:39:45;102038.06;;;17.79;
46015;BME280;36844;51.898;-0.874;2023-02-03T12:44:49;102042.09;;;17.89;
46015;BME280;36844;51.898;-0.874;2023-02-03T12:47:36;102037.22;;;17.94;
46015;BME280;36844;51.898;-0.874;2023-02-03T12:50:06;102028.06;;;17.99;
46015;BME280;36844;51.898;-0.874;2023-02-03T12:52:40;102025.06;;;18.04;
46015;BME280;36844;51.898;-0.874;2023-02-03T12:57:43;102017.19;;;18.14;
46015;BME280;36844;51.898;-0.874;2023-02-03T13:05:42;102032.88;;;18.28;
46015;BME280;36844;51.898;-0.874;2023-02-03T13:08:43;102041.44;;;18.33;
46015;BME280;36844;51.898;-0.874;2023-02-03T13:13:47;102045.47;;;18.43;
46015;BME280;36844;51.898;-0.874;2023-02-03T13:16:12;102045.16;;;18.48;
46015;BME280;36844;51.898;-0.874;2023-02-03T13:18:47;102046.00;;;18.52;
46015;BME280;36844;51.898;-0.874;2023-02-03T13:21:14;102036.06;;;18.56;
46015;BME280;36844;51.898;-0.874;2023-02-03T13:23:42;102039.97;;;18.58;
46015;BME280;36844;51.898;-0.874;2023-02-03T13:34:51;102034.34;;;18.70;
46015;BME280;36844;51.898;-0.874;2023-02-03T13:38:02;102030.19;;;18.73;
46015;BME280;36844;51.898;-0.874;2023-02-03T13:40:11;102029.44;;;18.76;
46015;BME280;36844;51.898;-0.874;2023-02-03T13:42:41;102022.91;;;18.77;
46015;BME280;36844;51.898;-0.874;2023-02-03T13:45:12;102017.91;;;18.79;
46015;BME280;36844;51.898;-0.874;2023-02-03T13:47:43;102014.88;;;18.81;
46015;BME280;36844;51.898;-0.874;2023-02-03T13:50:16;102012.97;;;18.81;
46015;BME280;36844;51.898;-0.874;2023-02-03T13:52:44;102019.50;;;18.80;
46015;BME280;36844;51.898;-0.874;2023-02-03T13:55:32;102023.75;;;18.81;
46015;BME280;36844;51.898;-0.874;2023-02-03T13:57:58;102014.09;;;18.80;
46015;BME280;36844;51.898;-0.874;2023-02-03T14:00:58;102015.22;;;18.79;
46015;BME280;36844;51.898;-0.874;2023-02-03T14:05:47;102022.91;;;18.77;
46015;BME280;36844;51.898;-0.874;2023-02-03T14:13:37;102014.31;;;18.71;
46015;BME280;36844;51.898;-0.874;2023-02-03T14:16:13;102009.31;;;18.70;
46015;BME280;36844;51.898;-0.874;2023-02-03T14:18:43;102011.56;;;18.68;
46015;BME280;36844;51.898;-0.874;2023-02-03T14:21:10;102010.00;;;18.67;
46015;BME280;36844;51.898;-0.874;2023-02-03T14:23:37;102009.59;;;18.65;
46015;BME280;36844;51.898;-0.874;2023-02-03T14:26:04;102011.13;;;18.62;
46015;BME280;36844;51.898;-0.874;2023-02-03T14:28:39;102007.19;;;18.60;
46015;BME280;36844;51.898;-0.874;2023-02-03T14:31:08;102014.88;;;18.58;
46015;BME280;36844;51.898;-0.874;2023-02-03T14:33:56;102021.78;;;18.55;
46015;BME280;36844;51.898;-0.874;2023-02-03T14:47:15;102022.34;;;18.42;
46015;BME280;36844;51.898;-0.874;2023-02-03T14:57:55;102025.25;;;18.33;
46015;BME280;36844;51.898;-0.874;2023-02-03T15:00:25;102023.28;;;18.30;
46015;BME280;36844;51.898;-0.874;2023-02-03T15:05:42;102025.13;;;18.26;
46015;BME280;36844;51.898;-0.874;2023-02-03T15:08:29;102030.84;;;18.25;
46015;BME280;36844;51.898;-0.874;2023-02-03T15:10:55;102035.84;;;18.23;
46015;BME280;36844;51.898;-0.874;2023-02-03T15:13:30;102035.38;;;18.21;
46015;BME280;36844;51.898;-0.874;2023-02-03T15:15:59;102040.38;;;18.19;
46015;BME280;36844;51.898;-0.874;2023-02-03T15:18:33;102029.94;;;18.17;
46015;BME280;36844;51.898;-0.874;2023-02-03T15:21:02;102034.16;;;18.15;
46015;BME280;36844;51.898;-0.874;2023-02-03T15:23:28;102040.66;;;18.14;
46015;BME280;36844;51.898;-0.874;2023-02-03T15:26:09;102049.94;;;18.13;
46015;BME280;36844;51.898;-0.874;2023-02-03T15:28:36;102051.38;;;18.10;
46015;BME280;36844;51.898;-0.874;2023-02-03T15:33:33;102045.16;;;18.06;
46015;BME280;36844;51.898;-0.874;2023-02-03T15:36:01;102038.56;;;18.04;
46015;BME280;36844;51.898;-0.874;2023-02-03T15:38:30;102052.41;;;18.02;
46015;BME280;36844;51.898;-0.874;2023-02-03T15:40:57;102050.84;;;18.01;
46015;BME280;36844;51.898;-0.874;2023-02-03T15:43:28;102053.88;;;18.00;
46015;BME280;36844;51.898;-0.874;2023-02-03T15:45:59;102056.16;;;17.98;
46015;BME280;36844;51.898;-0.874;2023-02-03T15:48:30;102054.59;;;17.97;
46015;BME280;36844;51.898;-0.874;2023-02-03T15:53:31;102058.00;;;17.94;
46015;BME280;36844;51.898;-0.874;2023-02-03T15:55:58;102059.13;;;17.93;
46015;BME280;36844;51.898;-0.874;2023-02-03T15:58:28;102072.97;;;17.91;
46015;BME280;36844;51.898;-0.874;2023-02-03T16:01:12;102070.63;;;17.90;
46015;BME280;36844;51.898;-0.874;2023-02-03T16:03:43;102077.16;;;17.89;
46015;BME280;36844;51.898;-0.874;2023-02-03T16:08:42;102083.25;;;17.86;
46015;BME280;36844;51.898;-0.874;2023-02-03T16:13:54;102095.88;;;17.82;
46015;BME280;36844;51.898;-0.874;2023-02-03T16:16:21;102088.94;;;17.81;